sensor_id;sensor_type;location;lat;lon;timestamp;pressure;altitude;pressure_sealevel;temperature;humidity
81608;BME280;71022;48.122;11.576;2024-02-26T00:00:15;93891.91;;;5.24;65.54
81608;BME280;71022;48.122;11.576;2024-02-26T00:02:43;93886.41;;;5.43;64.95
81608;BME280;71022;48.122;11.576;2024-02-26T00:05:10;93888.13;;;5.10;65.86
81608;BME280;71022;48.122;11.576;2024-02-26T00:07:37;93883.97;;;4.96;65.22
81608;BME280;71022;48.122;11.576;2024-02-26T00:10:06;93886.28;;;4.94;65.83
81608;BME280;71022;48.122;11.576;2024-02-26T00:12:33;93882.69;;;5.10;65.78
81608;BME280;71022;48.122;11.576;2024-02-26T00:15:00;93884.31;;;5.14;64.74
81608;BME280;71022;48.122;11.576;2024-02-26T00:17:28;93885.31;;;5.25;63.52
81608;BME280;71022;48.122;11.576;2024-02-26T00:19:55;93884.69;;;4.93;65.65
81608;BME280;71022;48.122;11.576;2024-02-26T00:22:22;93889.16;;;4.82;65.31
81608;BME280;71022;48.122;11.576;2024-02-26T00:24:50;93891.44;;;4.99;65.08
81608;BME280;71022;48.122;11.576;2024-02-26T00:27:17;93890.44;;;4.88;64.94
81608;BME280;71022;48.122;11.576;2024-02-26T00:29:44;93882.59;;;4.83;64.79
81608;BME280;71022;48.122;11.576;2024-02-26T00:32:12;93882.72;;;4.71;66.09
81608;BME280;71022;48.122;11.576;2024-02-26T00:34:39;93867.53;;;4.51;66.48
81608;BME280;71022;48.122;11.576;2024-02-26T00:37:06;93878.84;;;4.34;67.34
81608;BME280;71022;48.122;11.576;2024-02-26T00:39:34;93876.28;;;4.60;66.06
81608;BME280;71022;48.122;11.576;2024-02-26T00:42:01;93867.41;;;4.44;66.26
81608;BME280;71022;48.122;11.576;2024-02-26T00:44:28;93870.63;;;4.50;66.25
81608;BME280;71022;48.122;11.576;2024-02-26T00:46:55;93872.84;;;4.44;66.36
81608;BME280;71022;48.122;11.576;2024-02-26T00:49:23;93868.56;;;4.62;66.21
81608;BME280;71022;48.122;11.576;2024-02-26T00:51:50;93873.13;;;4.58;66.39
81608;BME280;71022;48.122;11.576;2024-02-26T00:54:18;93875.16;;;4.80;65.38
81608;BME280;71022;48.122;11.576;2024-02-26T00:56:45;93861.69;;;4.68;64.87
81608;BME280;71022;48.122;11.576;2024-02-26T00:59:13;93864.56;;;4.56;65.60
81608;BME280;71022;48.122;11.576;2024-02-26T01:01:40;93863.97;;;4.66;65.32
81608;BME280;71022;48.122;11.576;2024-02-26T01:04:07;93865.00;;;4.39;66.57
81608;BME280;71022;48.122;11.576;2024-02-26T01:06:35;93860.56;;;4.50;65.97
81608;BME280;71022;48.122;11.576;2024-02-26T01:09:02;93862.41;;;4.27;66.85
81608;BME280;71022;48.122;11.576;2024-02-26T01:11:30;93862.13;;;4.32;66.60
81608;BME280;71022;48.122;11.576;2024-02-26T01:13:57;93865.84;;;4.43;65.68
81608;BME280;71022;48.122;11.576;2024-02-26T01:16:25;93868.75;;;4.34;66.01
81608;BME280;71022;48.122;11.576;2024-02-26T01:18:53;93869.13;;;4.52;64.91
81608;BME280;71022;48.122;11.576;2024-02-26T01:21:20;93867.19;;;4.33;65.41
81608;BME280;71022;48.122;11.576;2024-02-26T01:23:48;93857.03;;;4.30;65.73
81608;BME280;71022;48.122;11.576;2024-02-26T01:26:15;93866.41;;;4.71;64.69
81608;BME280;71022;48.122;11.576;2024-02-26T01:28:42;93856.81;;;4.58;64.89
81608;BME280;71022;48.122;11.576;2024-02-26T01:31:10;93853.94;;;4.51;64.93
81608;BME280;71022;48.122;11.576;2024-02-26T01:33:37;93854.16;;;4.42;65.56
81608;BME280;71022;48.122;11.576;2024-02-26T01:36:04;93855.97;;;4.35;65.81
81608;BME280;71022;48.122;11.576;2024-02-26T01:38:32;93859.88;;;4.18;66.47
81608;BME280;71022;48.122;11.576;2024-02-26T01:40:59;93854.25;;;4.46;64.94
81608;BME280;71022;48.122;11.576;2024-02-26T01:43:27;93870.19;;;3.94;67.51
81608;BME280;71022;48.122;11.576;2024-02-26T01:45:55;93859.94;;;4.03;67.05
81608;BME280;71022;48.122;11.576;2024-02-26T01:48:22;93856.00;;;4.19;65.80
81608;BME280;71022;48.122;11.576;2024-02-26T01:50:49;93857.81;;;4.12;66.23
81608;BME280;71022;48.122;11.576;2024-02-26T01:53:17;93859.41;;;4.32;65.46
81608;BME280;71022;48.122;11.576;2024-02-26T01:55:46;93858.22;;;4.14;66.02
81608;BME280;71022;48.122;11.576;2024-02-26T01:58:13;93854.38;;;4.15;66.23
81608;BME280;71022;48.122;11.576;2024-02-26T02:00:41;93851.22;;;4.13;66.22
81608;BME280;71022;48.122;11.576;2024-02-26T02:03:09;93844.22;;;4.12;66.77
81608;BME280;71022;48.122;11.576;2024-02-26T02:05:37;93840.94;;;4.22;66.15
81608;BME280;71022;48.122;11.576;2024-02-26T02:08:10;93839.09;;;4.26;65.43
81608;BME280;71022;48.122;11.576;2024-02-26T02:10:38;93850.50;;;4.16;66.73
81608;BME280;71022;48.122;11.576;2024-02-26T02:13:06;93848.31;;;3.86;66.83
81608;BME280;71022;48.122;11.576;2024-02-26T02:15:33;93841.22;;;4.17;66.32
81608;BME280;71022;48.122;11.576;2024-02-26T02:18:01;93848.56;;;3.97;66.50
81608;BME280;71022;48.122;11.576;2024-02-26T02:20:32;93839.34;;;4.02;66.95
81608;BME280;71022;48.122;11.576;2024-02-26T02:23:01;93835.81;;;3.82;67.26
81608;BME280;71022;48.122;11.576;2024-02-26T02:25:29;93824.88;;;3.98;66.32
81608;BME280;71022;48.122;11.576;2024-02-26T02:27:56;93830.84;;;4.03;66.66
81608;BME280;71022;48.122;11.576;2024-02-26T02:30:25;93830.09;;;3.87;67.23
81608;BME280;71022;48.122;11.576;2024-02-26T02:32:55;93830.28;;;3.78;67.12
81608;BME280;71022;48.122;11.576;2024-02-26T02:35:22;93836.56;;;3.82;66.90
81608;BME280;71022;48.122;11.576;2024-02-26T02:37:52;93833.41;;;3.96;66.43
81608;BME280;71022;48.122;11.576;2024-02-26T02:40:19;93835.63;;;3.90;66.66
81608;BME280;71022;48.122;11.576;2024-02-26T02:42:46;93827.78;;;4.05;65.98
81608;BME280;71022;48.122;11.576;2024-02-26T02:45:13;93827.78;;;4.05;66.25
81608;BME280;71022;48.122;11.576;2024-02-26T02:47:41;93839.41;;;3.70;67.56
81608;BME280;71022;48.122;11.576;2024-02-26T02:50:08;93835.94;;;4.24;65.26
81608;BME280;71022;48.122;11.576;2024-02-26T02:52:36;93841.63;;;4.00;65.98
81608;BME280;71022;48.122;11.576;2024-02-26T02:55:03;93838.00;;;3.76;67.07
81608;BME280;71022;48.122;11.576;2024-02-26T02:57:31;93839.75;;;3.84;66.06
81608;BME280;71022;48.122;11.576;2024-02-26T02:59:59;93835.63;;;4.10;65.49
81608;BME280;71022;48.122;11.576;2024-02-26T03:02:26;93838.59;;;3.85;66.01
81608;BME280;71022;48.122;11.576;2024-02-26T03:04:53;93840.16;;;3.86;66.45
81608;BME280;71022;48.122;11.576;2024-02-26T03:07:21;93831.84;;;3.79;66.41
81608;BME280;71022;48.122;11.576;2024-02-26T03:09:48;93832.41;;;3.69;66.67
81608;BME280;71022;48.122;11.576;2024-02-26T03:12:15;93819.19;;;4.03;65.76
81608;BME280;71022;48.122;11.576;2024-02-26T03:14:43;93829.41;;;3.74;66.37
81608;BME280;71022;48.122;11.576;2024-02-26T03:17:10;93825.28;;;3.80;66.21
81608;BME280;71022;48.122;11.576;2024-02-26T03:19:37;93810.88;;;3.96;65.99
81608;BME280;71022;48.122;11.576;2024-02-26T03:22:05;93813.44;;;3.88;65.90
81608;BME280;71022;48.122;11.576;2024-02-26T03:24:32;93820.38;;;3.51;67.29
81608;BME280;71022;48.122;11.576;2024-02-26T03:26:59;93817.53;;;3.63;66.67
81608;BME280;71022;48.122;11.576;2024-02-26T03:29:26;93817.53;;;3.63;67.23
81608;BME280;71022;48.122;11.576;2024-02-26T03:31:53;93817.03;;;3.92;65.43
81608;BME280;71022;48.122;11.576;2024-02-26T03:34:21;93825.13;;;3.73;66.39
81608;BME280;71022;48.122;11.576;2024-02-26T03:36:48;93820.13;;;3.91;65.03
81608;BME280;71022;48.122;11.576;2024-02-26T03:39:16;93823.91;;;3.71;65.91
81608;BME280;71022;48.122;11.576;2024-02-26T03:41:43;93835.41;;;3.64;66.96
81608;BME280;71022;48.122;11.576;2024-02-26T03:44:10;93842.56;;;3.72;66.58
81608;BME280;71022;48.122;11.576;2024-02-26T03:46:37;93830.53;;;3.89;65.49
81608;BME280;71022;48.122;11.576;2024-02-26T03:49:05;93826.16;;;3.84;65.58
81608;BME280;71022;48.122;11.576;2024-02-26T03:51:32;93814.56;;;4.03;65.16
81608;BME280;71022;48.122;11.576;2024-02-26T03:54:00;93815.66;;;4.18;64.23
81608;BME280;71022;48.122;11.576;2024-02-26T03:56:28;93816.91;;;4.05;64.36
81608;BME280;71022;48.122;11.576;2024-02-26T03:58:55;93817.84;;;3.77;65.00
81608;BME280;71022;48.122;11.576;2024-02-26T04:01:22;93823.13;;;3.70;65.57
81608;BME280;71022;48.122;11.576;2024-02-26T04:03:49;93817.53;;;3.63;66.18
81608;BME280;71022;48.122;11.576;2024-02-26T04:06:17;93815.50;;;3.76;65.85
81608;BME280;71022;48.122;11.576;2024-02-26T04:08:48;93810.31;;;3.86;64.83
81608;BME280;71022;48.122;11.576;2024-02-26T04:11:15;93817.63;;;3.67;65.50
81608;BME280;71022;48.122;11.576;2024-02-26T04:13:45;93816.84;;;3.66;65.20
81608;BME280;71022;48.122;11.576;2024-02-26T04:16:13;93802.16;;;3.86;64.55
81608;BME280;71022;48.122;11.576;2024-02-26T04:18:42;93809.75;;;3.97;64.47
81608;BME280;71022;48.122;11.576;2024-02-26T04:21:09;93814.72;;;3.75;65.27
81608;BME280;71022;48.122;11.576;2024-02-26T04:23:37;93818.72;;;3.81;65.17
81608;BME280;71022;48.122;11.576;2024-02-26T04:26:04;93822.78;;;3.72;65.62
81608;BME280;71022;48.122;11.576;2024-02-26T04:28:32;93819.25;;;3.87;64.26
81608;BME280;71022;48.122;11.576;2024-02-26T04:30:59;93835.81;;;3.82;65.06
81608;BME280;71022;48.122;11.576;2024-02-26T04:33:26;93826.28;;;3.72;65.26
81608;BME280;71022;48.122;11.576;2024-02-26T04:35:53;93816.75;;;3.98;64.43
81608;BME280;71022;48.122;11.576;2024-02-26T04:38:21;93821.00;;;3.79;64.53
81608;BME280;71022;48.122;11.576;2024-02-26T04:40:49;93821.16;;;3.86;64.16
81608;BME280;71022;48.122;11.576;2024-02-26T04:43:16;93827.84;;;3.73;64.95
81608;BME280;71022;48.122;11.576;2024-02-26T04:45:45;93828.03;;;3.65;65.22
81608;BME280;71022;48.122;11.576;2024-02-26T04:48:12;93827.03;;;3.38;65.90
81608;BME280;71022;48.122;11.576;2024-02-26T04:50:39;93824.28;;;3.69;64.77
81608;BME280;71022;48.122;11.576;2024-02-26T04:53:07;93826.13;;;3.65;64.54
81608;BME280;71022;48.122;11.576;2024-02-26T04:55:35;93830.03;;;3.68;64.76
81608;BME280;71022;48.122;11.576;2024-02-26T04:58:02;93828.00;;;3.46;65.78
81608;BME280;71022;48.122;11.576;2024-02-26T05:00:29;93813.81;;;3.37;66.53
81608;BME280;71022;48.122;11.576;2024-02-26T05:02:56;93822.81;;;3.56;65.28
81608;BME280;71022;48.122;11.576;2024-02-26T05:05:24;93813.00;;;3.67;65.44
81608;BME280;71022;48.122;11.576;2024-02-26T05:07:51;93823.69;;;3.95;63.80
81608;BME280;71022;48.122;11.576;2024-02-26T05:10:19;93826.59;;;3.86;63.79
81608;BME280;71022;48.122;11.576;2024-02-26T05:12:46;93815.41;;;3.88;64.03
81608;BME280;71022;48.122;11.576;2024-02-26T05:15:13;93823.13;;;3.70;64.46
81608;BME280;71022;48.122;11.576;2024-02-26T05:17:45;93820.97;;;3.60;65.08
81608;BME280;71022;48.122;11.576;2024-02-26T05:20:12;93822.66;;;3.49;65.39
81608;BME280;71022;48.122;11.576;2024-02-26T05:22:40;93825.47;;;3.37;65.62
81608;BME280;71022;48.122;11.576;2024-02-26T05:25:07;93823.97;;;3.55;65.52
81608;BME280;71022;48.122;11.576;2024-02-26T05:27:34;93835.56;;;3.71;64.60
81608;BME280;71022;48.122;11.576;2024-02-26T05:30:02;93837.53;;;3.90;63.56
81608;BME280;71022;48.122;11.576;2024-02-26T05:32:30;93831.31;;;3.89;63.67
81608;BME280;71022;48.122;11.576;2024-02-26T05:34:57;93838.94;;;3.84;63.88
81608;BME280;71022;48.122;11.576;2024-02-26T05:37:24;93836.56;;;3.82;63.01
81608;BME280;71022;48.122;11.576;2024-02-26T05:39:52;93850.59;;;3.84;63.13
81608;BME280;71022;48.122;11.576;2024-02-26T05:42:19;93839.75;;;3.84;62.83
81608;BME280;71022;48.122;11.576;2024-02-26T05:44:47;93842.00;;;3.82;63.35
81608;BME280;71022;48.122;11.576;2024-02-26T05:47:14;93845.00;;;3.77;63.47
81608;BME280;71022;48.122;11.576;2024-02-26T05:49:41;93838.91;;;4.00;63.03
81608;BME280;71022;48.122;11.576;2024-02-26T05:52:08;93844.91;;;3.74;64.57
81608;BME280;71022;48.122;11.576;2024-02-26T05:54:36;93840.97;;;3.87;63.79
81608;BME280;71022;48.122;11.576;2024-02-26T05:57:03;93845.66;;;4.06;63.15
81608;BME280;71022;48.122;11.576;2024-02-26T05:59:30;93837.91;;;4.08;62.87
81608;BME280;71022;48.122;11.576;2024-02-26T06:01:57;93847.72;;;4.12;62.86
81608;BME280;71022;48.122;11.576;2024-02-26T06:04:25;93842.09;;;4.21;62.30
81608;BME280;71022;48.122;11.576;2024-02-26T06:06:52;93845.81;;;4.32;61.98
81608;BME280;71022;48.122;11.576;2024-02-26T06:09:19;93849.22;;;4.48;61.87
81608;BME280;71022;48.122;11.576;2024-02-26T06:11:47;93854.47;;;4.37;62.30
81608;BME280;71022;48.122;11.576;2024-02-26T06:14:14;93856.53;;;4.25;62.64
81608;BME280;71022;48.122;11.576;2024-02-26T06:16:45;93862.63;;;4.37;61.79
81608;BME280;71022;48.122;11.576;2024-02-26T06:19:12;93861.97;;;4.25;62.05
81608;BME280;71022;48.122;11.576;2024-02-26T06:21:40;93870.56;;;4.46;62.17
81608;BME280;71022;48.122;11.576;2024-02-26T06:24:07;93872.56;;;4.30;62.10
81608;BME280;71022;48.122;11.576;2024-02-26T06:26:34;93877.88;;;4.42;62.57
81608;BME280;71022;48.122;11.576;2024-02-26T06:29:01;93878.72;;;4.27;62.98
81608;BME280;71022;48.122;11.576;2024-02-26T06:31:29;93884.34;;;4.37;62.20
81608;BME280;71022;48.122;11.576;2024-02-26T06:33:56;93883.09;;;4.51;61.62
81608;BME280;71022;48.122;11.576;2024-02-26T06:36:24;93885.41;;;4.90;60.85
81608;BME280;71022;48.122;11.576;2024-02-26T06:38:51;93891.91;;;5.05;60.30
81608;BME280;71022;48.122;11.576;2024-02-26T06:41:21;93893.00;;;4.81;61.25
81608;BME280;71022;48.122;11.576;2024-02-26T06:43:48;93896.47;;;4.59;62.44
81608;BME280;71022;48.122;11.576;2024-02-26T06:46:15;93898.72;;;4.57;62.40
81608;BME280;71022;48.122;11.576;2024-02-26T06:48:43;93899.94;;;4.40;62.19
81608;BME280;71022;48.122;11.576;2024-02-26T06:51:11;93910.63;;;4.87;61.36
81608;BME280;71022;48.122;11.576;2024-02-26T06:53:38;93911.78;;;4.67;61.21
81608;BME280;71022;48.122;11.576;2024-02-26T06:56:06;93917.78;;;4.76;61.47
81608;BME280;71022;48.122;11.576;2024-02-26T06:58:33;93922.59;;;4.83;61.55
81608;BME280;71022;48.122;11.576;2024-02-26T07:01:00;93919.59;;;4.69;62.03
81608;BME280;71022;48.122;11.576;2024-02-26T07:03:28;93917.06;;;4.98;61.22
81608;BME280;71022;48.122;11.576;2024-02-26T07:05:56;93920.06;;;4.93;60.83
81608;BME280;71022;48.122;11.576;2024-02-26T07:08:24;93919.06;;;5.01;60.49
81608;BME280;71022;48.122;11.576;2024-02-26T07:10:51;93912.91;;;4.85;60.96
81608;BME280;71022;48.122;11.576;2024-02-26T07:13:18;93930.16;;;5.12;59.81
81608;BME280;71022;48.122;11.576;2024-02-26T07:15:46;93928.22;;;5.13;59.97
81608;BME280;71022;48.122;11.576;2024-02-26T07:18:13;93932.91;;;5.35;58.54
81608;BME280;71022;48.122;11.576;2024-02-26T07:20:40;93926.06;;;5.44;59.06
81608;BME280;71022;48.122;11.576;2024-02-26T07:23:07;93932.19;;;5.83;57.52
81608;BME280;71022;48.122;11.576;2024-02-26T07:25:35;93930.03;;;5.92;57.10
81608;BME280;71022;48.122;11.576;2024-02-26T07:28:03;93921.69;;;6.04;57.19
81608;BME280;71022;48.122;11.576;2024-02-26T07:30:30;93925.31;;;6.12;56.95
81608;BME280;71022;48.122;11.576;2024-02-26T07:32:57;93923.88;;;5.95;56.57
81608;BME280;71022;48.122;11.576;2024-02-26T07:35:25;93928.78;;;6.12;56.71
81608;BME280;71022;48.122;11.576;2024-02-26T07:37:52;93922.72;;;6.23;55.47
81608;BME280;71022;48.122;11.576;2024-02-26T07:40:20;93924.31;;;6.24;55.83
81608;BME280;71022;48.122;11.576;2024-02-26T07:42:47;93935.00;;;6.36;54.80
81608;BME280;71022;48.122;11.576;2024-02-26T07:45:15;93936.16;;;6.35;55.35
81608;BME280;71022;48.122;11.576;2024-02-26T07:47:42;93930.91;;;6.49;54.90
81608;BME280;71022;48.122;11.576;2024-02-26T07:50:10;93938.13;;;6.64;54.30
81608;BME280;71022;48.122;11.576;2024-02-26T07:52:39;93946.09;;;6.76;53.33
81608;BME280;71022;48.122;11.576;2024-02-26T07:55:07;93945.16;;;6.65;53.10
81608;BME280;71022;48.122;11.576;2024-02-26T07:57:34;93948.34;;;6.71;53.72
81608;BME280;71022;48.122;11.576;2024-02-26T08:00:02;93953.91;;;6.51;53.98
81608;BME280;71022;48.122;11.576;2024-02-26T08:02:31;93950.09;;;6.56;53.98
81608;BME280;71022;48.122;11.576;2024-02-26T08:04:59;93945.47;;;6.34;55.38
81608;BME280;71022;48.122;11.576;2024-02-26T08:07:26;93952.09;;;6.59;54.84
81608;BME280;71022;48.122;11.576;2024-02-26T08:09:53;93949.38;;;6.59;54.04
81608;BME280;71022;48.122;11.576;2024-02-26T08:12:20;93948.31;;;6.67;54.51
81608;BME280;71022;48.122;11.576;2024-02-26T08:14:47;93957.69;;;6.69;54.36
81608;BME280;71022;48.122;11.576;2024-02-26T08:17:15;93956.06;;;6.65;54.32
81608;BME280;71022;48.122;11.576;2024-02-26T08:19:42;93953.81;;;6.71;53.99
81608;BME280;71022;48.122;11.576;2024-02-26T08:22:09;93945.97;;;6.69;54.07
81608;BME280;71022;48.122;11.576;2024-02-26T08:24:43;93941.94;;;6.86;53.35
81608;BME280;71022;48.122;11.576;2024-02-26T08:27:10;93936.69;;;7.03;53.27
81608;BME280;71022;48.122;11.576;2024-02-26T08:29:37;93931.09;;;7.26;52.93
81608;BME280;71022;48.122;11.576;2024-02-26T08:32:05;93941.78;;;7.38;52.21
81608;BME280;71022;48.122;11.576;2024-02-26T08:34:34;93942.13;;;7.33;52.64
81608;BME280;71022;48.122;11.576;2024-02-26T08:37:01;93942.22;;;7.44;52.86
81608;BME280;71022;48.122;11.576;2024-02-26T08:39:28;93960.81;;;7.68;52.04
81608;BME280;71022;48.122;11.576;2024-02-26T08:41:55;93967.50;;;7.74;52.29
81608;BME280;71022;48.122;11.576;2024-02-26T08:44:23;93972.38;;;7.91;52.27
81608;BME280;71022;48.122;11.576;2024-02-26T08:46:50;93967.72;;;7.95;51.79
81608;BME280;71022;48.122;11.576;2024-02-26T08:49:18;93976.84;;;8.10;51.18
81608;BME280;71022;48.122;11.576;2024-02-26T08:51:45;93980.19;;;8.29;50.35
81608;BME280;71022;48.122;11.576;2024-02-26T08:54:12;93978.59;;;8.28;50.22
81608;BME280;71022;48.122;11.576;2024-02-26T08:56:39;93977.81;;;8.28;50.22
81608;BME280;71022;48.122;11.576;2024-02-26T08:59:07;93971.97;;;8.29;50.47
81608;BME280;71022;48.122;11.576;2024-02-26T09:01:34;93971.97;;;8.29;50.84
81608;BME280;71022;48.122;11.576;2024-02-26T09:04:01;93971.88;;;8.22;50.67
81608;BME280;71022;48.122;11.576;2024-02-26T09:06:29;93967.28;;;8.33;51.27
81608;BME280;71022;48.122;11.576;2024-02-26T09:08:56;93973.19;;;8.36;51.37
81608;BME280;71022;48.122;11.576;2024-02-26T09:11:28;93970.44;;;8.32;51.37
81608;BME280;71022;48.122;11.576;2024-02-26T09:13:55;93973.59;;;8.38;50.83
81608;BME280;71022;48.122;11.576;2024-02-26T09:16:22;93976.13;;;8.16;51.53
81608;BME280;71022;48.122;11.576;2024-02-26T09:18:49;93977.44;;;8.29;51.50
81608;BME280;71022;48.122;11.576;2024-02-26T09:21:17;93967.44;;;8.48;50.61
81608;BME280;71022;48.122;11.576;2024-02-26T09:23:50;93965.16;;;8.57;50.20
81608;BME280;71022;48.122;11.576;2024-02-26T09:26:18;93967.56;;;8.69;49.63
81608;BME280;71022;48.122;11.576;2024-02-26T09:28:45;93965.16;;;8.57;49.76
81608;BME280;71022;48.122;11.576;2024-02-26T09:31:12;93971.44;;;8.64;49.74
81608;BME280;71022;48.122;11.576;2024-02-26T09:33:42;93971.91;;;8.77;49.68
81608;BME280;71022;48.122;11.576;2024-02-26T09:36:10;93961.44;;;8.89;49.72
81608;BME280;71022;48.122;11.576;2024-02-26T09:38:38;93962.56;;;8.85;49.46
81608;BME280;71022;48.122;11.576;2024-02-26T09:41:22;93969.25;;;8.84;49.92
81608;BME280;71022;48.122;11.576;2024-02-26T09:43:55;93966.28;;;9.14;49.79
81608;BME280;71022;48.122;11.576;2024-02-26T09:46:24;93962.44;;;9.36;49.47
81608;BME280;71022;48.122;11.576;2024-02-26T09:48:52;93953.13;;;9.62;49.12
81608;BME280;71022;48.122;11.576;2024-02-26T09:51:22;93961.75;;;9.64;48.87
81608;BME280;71022;48.122;11.576;2024-02-26T09:53:52;93955.84;;;9.51;49.00
81608;BME280;71022;48.122;11.576;2024-02-26T09:56:21;93952.72;;;9.60;49.93
81608;BME280;71022;48.122;11.576;2024-02-26T09:58:49;93953.53;;;9.64;49.71
81608;BME280;71022;48.122;11.576;2024-02-26T10:01:21;93958.59;;;9.62;49.46
81608;BME280;71022;48.122;11.576;2024-02-26T10:03:55;93957.00;;;9.43;50.05
81608;BME280;71022;48.122;11.576;2024-02-26T10:06:26;93953.84;;;9.44;49.92
81608;BME280;71022;48.122;11.576;2024-02-26T10:08:55;93960.09;;;9.41;49.56
81608;BME280;71022;48.122;11.576;2024-02-26T10:11:26;93953.09;;;9.48;49.04
81608;BME280;71022;48.122;11.576;2024-02-26T10:13:54;93951.88;;;9.41;49.19
81608;BME280;71022;48.122;11.576;2024-02-26T10:16:22;93951.47;;;9.32;49.72
81608;BME280;71022;48.122;11.576;2024-02-26T10:18:50;93954.63;;;9.41;49.40
81608;BME280;71022;48.122;11.576;2024-02-26T10:21:26;93949.19;;;9.49;48.78
81608;BME280;71022;48.122;11.576;2024-02-26T10:23:53;93939.00;;;9.49;49.14
81608;BME280;71022;48.122;11.576;2024-02-26T10:26:21;93940.59;;;9.61;49.92
81608;BME280;71022;48.122;11.576;2024-02-26T10:28:49;93936.31;;;9.67;48.48
81608;BME280;71022;48.122;11.576;2024-02-26T10:31:21;93937.50;;;9.73;48.52
81608;BME280;71022;48.122;11.576;2024-02-26T10:33:49;93935.94;;;9.86;48.41
81608;BME280;71022;48.122;11.576;2024-02-26T10:36:17;93932.84;;;10.05;47.92
81608;BME280;71022;48.122;11.576;2024-02-26T10:38:44;93929.75;;;10.17;47.90
81608;BME280;71022;48.122;11.576;2024-02-26T10:41:15;93926.59;;;10.12;47.43
81608;BME280;71022;48.122;11.576;2024-02-26T10:43:43;93925.03;;;10.25;47.66
81608;BME280;71022;48.122;11.576;2024-02-26T10:46:11;93920.72;;;10.34;47.44
81608;BME280;71022;48.122;11.576;2024-02-26T10:48:38;93922.72;;;10.48;47.35
81608;BME280;71022;48.122;11.576;2024-02-26T10:51:09;93935.25;;;10.31;47.05
81608;BME280;71022;48.122;11.576;2024-02-26T10:53:38;93930.56;;;10.39;47.08
81608;BME280;71022;48.122;11.576;2024-02-26T10:56:08;93938.38;;;10.40;46.55
81608;BME280;71022;48.122;11.576;2024-02-26T10:58:36;93943.88;;;10.26;47.06
81608;BME280;71022;48.122;11.576;2024-02-26T11:01:04;93935.22;;;10.28;46.70
81608;BME280;71022;48.122;11.576;2024-02-26T11:03:32;93942.31;;;10.18;47.22
81608;BME280;71022;48.122;11.576;2024-02-26T11:06:03;93955.56;;;10.13;46.69
81608;BME280;71022;48.122;11.576;2024-02-26T11:08:31;93951.72;;;10.38;46.27
81608;BME280;71022;48.122;11.576;2024-02-26T11:10:59;93959.53;;;10.61;45.99
81608;BME280;71022;48.122;11.576;2024-02-26T11:13:28;93959.13;;;10.77;45.33
81608;BME280;71022;48.122;11.576;2024-02-26T11:16:02;93958.75;;;10.68;45.58
81608;BME280;71022;48.122;11.576;2024-02-26T11:18:29;93961.88;;;10.77;45.59
81608;BME280;71022;48.122;11.576;2024-02-26T11:20:59;93970.88;;;10.91;45.78
81608;BME280;71022;48.122;11.576;2024-02-26T11:23:27;93971.66;;;10.88;44.93
81608;BME280;71022;48.122;11.576;2024-02-26T11:25:56;93968.13;;;10.88;44.70
81608;BME280;71022;48.122;11.576;2024-02-26T11:28:28;93962.63;;;11.02;43.38
81608;BME280;71022;48.122;11.576;2024-02-26T11:30:57;93979.91;;;10.81;43.07
81608;BME280;71022;48.122;11.576;2024-02-26T11:33:26;93975.19;;;10.82;43.29
81608;BME280;71022;48.122;11.576;2024-02-26T11:35:55;93972.81;;;11.05;43.13
81608;BME280;71022;48.122;11.576;2024-02-26T11:38:24;93966.50;;;11.22;43.06
81608;BME280;71022;48.122;11.576;2024-02-26T11:40:53;93961.38;;;11.31;42.06
81608;BME280;71022;48.122;11.576;2024-02-26T11:46:40;93957.03;;;11.37;42.99
81608;BME280;71022;48.122;11.576;2024-02-26T11:51:51;93948.69;;;11.55;42.53
81608;BME280;71022;48.122;11.576;2024-02-26T11:54:53;93946.69;;;11.62;42.17
81608;BME280;71022;48.122;11.576;2024-02-26T11:57:30;93944.34;;;11.64;41.92
81608;BME280;71022;48.122;11.576;2024-02-26T12:02:52;93943.53;;;11.71;41.40
81608;BME280;71022;48.122;11.576;2024-02-26T12:05:32;93943.50;;;11.82;40.53
81608;BME280;71022;48.122;11.576;2024-02-26T12:08:02;93948.50;;;11.97;40.35
81608;BME280;71022;48.122;11.576;2024-02-26T12:10:35;93947.25;;;12.09;40.38
81608;BME280;71022;48.122;11.576;2024-02-26T12:13:14;93947.19;;;12.16;40.19
81608;BME280;71022;48.122;11.576;2024-02-26T12:15:55;93940.22;;;12.01;40.23
81608;BME280;71022;48.122;11.576;2024-02-26T12:18:23;93931.22;;;11.97;40.29
81608;BME280;71022;48.122;11.576;2024-02-26T12:21:01;93930.88;;;11.88;40.19
81608;BME280;71022;48.122;11.576;2024-02-26T12:23:29;93933.22;;;11.86;40.02
81608;BME280;71022;48.122;11.576;2024-02-26T12:26:00;93936.84;;;11.68;39.66
81608;BME280;71022;48.122;11.576;2024-02-26T12:28:31;93938.03;;;11.68;39.80
81608;BME280;71022;48.122;11.576;2024-02-26T12:30:59;93943.50;;;11.78;39.88
81608;BME280;71022;48.122;11.576;2024-02-26T12:33:28;93944.22;;;11.86;40.04
81608;BME280;71022;48.122;11.576;2024-02-26T12:35:57;93961.41;;;12.04;40.09
81608;BME280;71022;48.122;11.576;2024-02-26T12:38:26;93970.81;;;12.10;40.57
81608;BME280;71022;48.122;11.576;2024-02-26T12:40:54;93975.44;;;12.27;40.13
81608;BME280;71022;48.122;11.576;2024-02-26T12:43:21;93969.63;;;12.11;40.80
81608;BME280;71022;48.122;11.576;2024-02-26T12:45:48;93969.28;;;12.09;40.52
81608;BME280;71022;48.122;11.576;2024-02-26T12:48:16;93970.56;;;11.87;39.98
81608;BME280;71022;48.122;11.576;2024-02-26T12:50:46;93970.22;;;11.78;41.02
81608;BME280;71022;48.122;11.576;2024-02-26T12:53:17;93973.31;;;11.87;41.75
81608;BME280;71022;48.122;11.576;2024-02-26T12:55:44;93968.50;;;12.05;41.13
81608;BME280;71022;48.122;11.576;2024-02-26T12:58:12;93981.41;;;12.15;41.15
81608;BME280;71022;48.122;11.576;2024-02-26T13:00:41;93982.47;;;12.35;41.05
81608;BME280;71022;48.122;11.576;2024-02-26T13:03:09;93991.41;;;12.46;41.65
81608;BME280;71022;48.122;11.576;2024-02-26T13:05:37;93985.91;;;12.46;42.29
81608;BME280;71022;48.122;11.576;2024-02-26T13:08:04;93988.66;;;12.50;42.96
81608;BME280;71022;48.122;11.576;2024-02-26T13:10:35;93993.44;;;12.42;42.72